Time;durP1;ratioP1;P1;durP2;ratioP2;P2;SDS_P1;SDS_P2;PMS_P1;PMS_P2;Temp;Humidity;BMP_temperature;BMP_pressure;BME280_temperature;BME280_humidity;BME280_pressure;Samples;Min_cycle;Max_cycle;Signal;HPM_P1;HPM_P2
2023/12/24 00:01:14;;;;;;;20.88;6.35;;;9.20;99.90;;;;;;5069149;27;20043;-78
2023/12/24 00:03:41;;;;;;;20.20;6.78;;;9.10;99.90;;;;;;5071310;28;20048;-78
2023/12/24 00:06:07;;;;;;;21.17;6.68;;;9.10;99.90;;;;;;5088325;28;20043;-78
2023/12/24 00:08:35;;;;;;;21.95;6.25;;;9.10;99.90;;;;;;5088439;28;20050;-78
2023/12/24 00:11:01;;;;;;;18.63;5.93;;;9.10;99.90;;;;;;5065512;28;20039;-78
2023/12/24 00:13:28;;;;;;;19.95;6.60;;;9.10;99.90;;;;;;5061057;28;20055;-78
2023/12/24 00:15:54;;;;;;;24.45;7.55;;;9.10;99.90;;;;;;5092060;27;20043;-78
2023/12/24 00:18:19;;;;;;;20.98;6.45;;;9.10;99.90;;;;;;5089153;28;20039;-78
2023/12/24 00:20:45;;;;;;;22.88;6.95;;;9.10;99.90;;;;;;5087579;27;20078;-78
2023/12/24 00:23:11;;;;;;;25.60;7.40;;;9.10;99.90;;;;;;5068593;27;20047;-78
2023/12/24 00:25:38;;;;;;;24.55;7.50;;;9.10;99.90;;;;;;5070146;28;20047;-78
2023/12/24 00:28:07;;;;;;;18.15;6.45;;;9.10;99.90;;;;;;5073524;27;20052;-78
2023/12/24 00:30:34;;;;;;;23.33;6.47;;;9.10;99.90;;;;;;5084440;28;20067;-79
2023/12/24 00:33:00;;;;;;;18.70;6.88;;;9.10;99.90;;;;;;5072797;28;20494;-79
2023/12/24 00:35:27;;;;;;;17.70;7.60;;;9.10;99.90;;;;;;5062774;28;20048;-78
2023/12/24 00:37:56;;;;;;;18.90;7.13;;;9.10;99.90;;;;;;5096664;27;20043;-78
2023/12/24 00:40:22;;;;;;;20.42;6.57;;;9.10;99.90;;;;;;5073584;27;20048;-77
2023/12/24 00:42:48;;;;;;;22.50;7.50;;;9.20;99.90;;;;;;5082981;28;20117;-78
2023/12/24 00:45:13;;;;;;;24.08;7.45;;;9.20;99.90;;;;;;5068432;27;20047;-78
2023/12/24 00:47:40;;;;;;;17.80;6.75;;;9.20;99.90;;;;;;5067851;28;20043;-79
2023/12/24 00:50:07;;;;;;;22.55;7.30;;;9.20;99.90;;;;;;5088055;27;20050;-78
2023/12/24 00:52:33;;;;;;;23.42;7.90;;;9.20;99.90;;;;;;5072129;27;20035;-79
2023/12/24 00:54:59;;;;;;;24.42;8.20;;;9.20;99.90;;;;;;5068522;28;20125;-80
2023/12/24 00:57:25;;;;;;;24.95;8.02;;;9.10;99.90;;;;;;5095825;27;20043;-77
2023/12/24 00:59:51;;;;;;;23.88;7.72;;;9.10;99.90;;;;;;5093462;27;20315;-77
2023/12/24 01:02:16;;;;;;;18.38;7.90;;;9.10;99.90;;;;;;5076603;27;20066;-77
2023/12/24 01:04:43;;;;;;;24.92;7.15;;;9.10;99.90;;;;;;5069622;28;20048;-76
2023/12/24 01:07:09;;;;;;;19.15;7.50;;;9.10;99.90;;;;;;5078224;27;20489;-77
2023/12/24 01:09:38;;;;;;;27.70;7.53;;;9.10;99.90;;;;;;5084728;28;20036;-77
2023/12/24 01:12:04;;;;;;;23.45;7.50;;;9.10;99.90;;;;;;5096583;27;20443;-78
2023/12/24 01:14:30;;;;;;;18.65;6.43;;;9.10;99.90;;;;;;5067363;27;20043;-77
2023/12/24 01:16:56;;;;;;;20.38;7.65;;;9.10;99.90;;;;;;5085854;27;20588;-78
2023/12/24 01:19:22;;;;;;;26.30;7.05;;;9.10;99.90;;;;;;5081759;28;20039;-78
2023/12/24 01:21:48;;;;;;;21.63;7.10;;;9.10;99.90;;;;;;5066025;28;20459;-78
2023/12/24 01:24:14;;;;;;;25.73;7.03;;;9.10;99.90;;;;;;5073641;27;20031;-79
2023/12/24 01:26:40;;;;;;;18.50;7.20;;;9.10;99.90;;;;;;5067719;27;20086;-79
2023/12/24 01:29:06;;;;;;;24.85;6.75;;;9.10;99.90;;;;;;5063220;27;20067;-79
2023/12/24 01:31:32;;;;;;;18.27;7.05;;;9.10;99.90;;;;;;5070774;28;20043;-77
2023/12/24 01:33:58;;;;;;;17.85;6.38;;;9.10;99.90;;;;;;5084476;28;20116;-77
2023/12/24 01:36:24;;;;;;;17.30;5.47;;;9.10;99.90;;;;;;5084424;28;20669;-76
2023/12/24 01:38:49;;;;;;;20.38;5.88;;;9.10;99.90;;;;;;5096551;27;20035;-77
2023/12/24 01:41:15;;;;;;;23.92;6.22;;;9.10;99.90;;;;;;5064902;28;20123;-76
2023/12/24 01:43:42;;;;;;;23.35;6.28;;;9.10;99.90;;;;;;5084135;27;20138;-77
2023/12/24 01:46:13;;;;;;;17.63;5.82;;;9.10;99.90;;;;;;5087868;28;20477;-77
2023/12/24 01:48:39;;;;;;;14.98;5.35;;;9.20;99.90;;;;;;5073032;28;20387;-77
2023/12/24 01:51:06;;;;;;;25.08;6.20;;;9.10;99.90;;;;;;5064788;28;20395;-77
2023/12/24 01:53:32;;;;;;;22.45;5.90;;;9.10;99.90;;;;;;5068725;27;20051;-78
2023/12/24 01:56:01;;;;;;;19.30;6.53;;;9.10;99.90;;;;;;5068497;28;20124;-78
2023/12/24 01:58:27;;;;;;;13.80;4.85;;;9.10;99.90;;;;;;5073769;28;20532;-76
2023/12/24 02:00:56;;;;;;;19.83;5.55;;;9.10;99.90;;;;;;5074416;28;20032;-77
2023/12/24 02:03:23;;;;;;;14.23;4.82;;;9.10;99.90;;;;;;5084011;28;20468;-76
2023/12/24 02:05:50;;;;;;;17.40;5.20;;;9.10;99.90;;;;;;5071133;28;20081;-76
2023/12/24 02:08:21;;;;;;;17.90;6.65;;;9.20;99.90;;;;;;5074088;27;20040;-75
2023/12/24 02:10:48;;;;;;;16.40;5.55;;;9.10;99.90;;;;;;5087549;28;20046;-76
2023/12/24 02:13:15;;;;;;;11.68;5.18;;;9.10;99.90;;;;;;5091432;28;20498;-76
2023/12/24 02:15:44;;;;;;;13.80;5.75;;;9.30;99.90;;;;;;5068825;28;20100;-76
2023/12/24 02:18:10;;;;;;;13.95;5.28;;;9.20;99.90;;;;;;5077146;28;20072;-77
2023/12/24 02:20:36;;;;;;;15.70;6.13;;;9.20;99.90;;;;;;5086402;28;20081;-77
2023/12/24 02:23:01;;;;;;;12.18;5.90;;;9.20;99.90;;;;;;5071145;28;20044;-78
2023/12/24 02:25:27;;;;;;;15.57;5.95;;;9.20;99.90;;;;;;5076537;28;20050;-77
2023/12/24 02:28:14;;;;;;;14.77;6.80;;;9.20;99.90;;;;;;5081355;28;20431;-77
2023/12/24 02:30:44;;;;;;;19.98;6.80;;;9.20;99.90;;;;;;5069945;28;20044;-77
2023/12/24 02:33:14;;;;;;;18.65;7.85;;;9.20;99.90;;;;;;5071290;28;20047;-77
2023/12/24 02:35:42;;;;;;;17.13;7.70;;;9.30;99.90;;;;;;5067091;28;20126;-77
2023/12/24 02:38:07;;;;;;;15.35;7.43;;;9.20;99.90;;;;;;5068902;28;20050;-78
2023/12/24 02:40:33;;;;;;;24.42;8.25;;;9.30;99.90;;;;;;5088016;28;20043;-77
2023/12/24 02:43:02;;;;;;;17.60;7.85;;;9.20;99.90;;;;;;5068844;28;20051;-77
2023/12/24 02:45:28;;;;;;;22.27;8.05;;;9.20;99.90;;;;;;5070192;28;20047;-77
2023/12/24 02:47:54;;;;;;;22.70;8.90;;;9.30;99.90;;;;;;5078782;28;20432;-77
2023/12/24 02:50:20;;;;;;;13.15;7.28;;;9.20;99.90;;;;;;5087402;28;20035;-77
2023/12/24 02:52:46;;;;;;;14.40;6.78;;;9.30;99.90;;;;;;5084168;28;20653;-78
2023/12/24 02:55:12;;;;;;;11.80;6.20;;;9.30;99.90;;;;;;5087183;28;20048;-78
2023/12/24 02:57:38;;;;;;;12.73;6.35;;;9.30;99.90;;;;;;5073474;28;20040;-78
2023/12/24 03:00:05;;;;;;;13.80;6.90;;;9.30;99.90;;;;;;5076981;28;20043;-78
2023/12/24 03:02:32;;;;;;;11.88;4.97;;;9.20;99.90;;;;;;5070176;28;20075;-79
2023/12/24 03:04:58;;;;;;;12.40;4.90;;;9.30;99.90;;;;;;5068647;28;20051;-78
2023/12/24 03:07:24;;;;;;;11.27;5.25;;;9.30;99.90;;;;;;5074447;28;20036;-78
2023/12/24 03:09:50;;;;;;;12.65;5.03;;;9.30;99.90;;;;;;5061859;28;20050;-78
2023/12/24 03:12:17;;;;;;;10.35;5.13;;;9.30;99.90;;;;;;5069318;28;20064;-77
2023/12/24 03:14:43;;;;;;;11.05;5.35;;;9.30;99.90;;;;;;5057664;28;20040;-77
2023/12/24 03:17:09;;;;;;;14.00;5.68;;;9.30;99.90;;;;;;5058712;28;20047;-77
2023/12/24 03:19:34;;;;;;;13.18;6.30;;;9.30;99.90;;;;;;5054299;28;20032;-77
2023/12/24 03:22:00;;;;;;;14.65;5.78;;;9.30;99.90;;;;;;5072023;28;20032;-77
2023/12/24 03:24:26;;;;;;;10.45;5.65;;;9.30;99.90;;;;;;5082274;28;21019;-77
2023/12/24 03:26:52;;;;;;;11.80;5.40;;;9.30;99.90;;;;;;5057786;28;20062;-77
2023/12/24 03:29:17;;;;;;;12.55;5.18;;;9.30;99.90;;;;;;5072428;28;20402;-77
2023/12/24 03:31:43;;;;;;;12.13;4.68;;;9.30;99.90;;;;;;5069399;28;20280;-77
2023/12/24 03:34:09;;;;;;;8.95;4.75;;;9.40;99.90;;;;;;5070647;28;20036;-77
2023/12/24 03:36:35;;;;;;;12.48;5.70;;;9.30;99.90;;;;;;5073945;28;20078;-77
2023/12/24 03:39:01;;;;;;;10.63;5.00;;;9.30;99.90;;;;;;5073069;28;20477;-77
2023/12/24 03:41:27;;;;;;;10.32;5.93;;;9.30;99.90;;;;;;5082422;28;20040;-79
2023/12/24 03:43:52;;;;;;;10.85;5.95;;;9.30;99.90;;;;;;5082933;28;20081;-78
2023/12/24 03:46:19;;;;;;;11.05;5.90;;;9.40;99.90;;;;;;5063944;28;20113;-78
2023/12/24 03:48:45;;;;;;;12.05;5.60;;;9.40;99.90;;;;;;5054054;28;20036;-77
2023/12/24 03:51:11;;;;;;;12.52;5.93;;;9.40;99.90;;;;;;5072123;28;20486;-77
2023/12/24 03:53:38;;;;;;;13.63;5.72;;;9.40;99.90;;;;;;5064901;28;20036;-76
2023/12/24 03:56:04;;;;;;;9.00;5.53;;;9.40;99.90;;;;;;5067532;28;20131;-76
2023/12/24 03:58:30;;;;;;;11.65;6.45;;;9.40;99.90;;;;;;5059646;28;20043;-76
2023/12/24 04:00:56;;;;;;;13.07;6.40;;;9.40;99.90;;;;;;5089682;28;20452;-76
2023/12/24 04:03:22;;;;;;;11.38;6.53;;;9.40;99.90;;;;;;5071036;28;20097;-76
2023/12/24 04:05:49;;;;;;;10.98;5.75;;;9.40;99.90;;;;;;5076396;28;20052;-77
2023/12/24 04:08:17;;;;;;;11.80;4.47;;;9.40;99.90;;;;;;5081670;28;20115;-77
2023/12/24 04:10:43;;;;;;;9.73;4.80;;;9.40;99.90;;;;;;5072937;28;20554;-76
2023/12/24 04:13:09;;;;;;;9.48;4.50;;;9.40;99.90;;;;;;5065092;28;20044;-76
2023/12/24 04:15:35;;;;;;;6.88;3.83;;;9.40;99.90;;;;;;5069974;28;20043;-76
2023/12/24 04:18:01;;;;;;;7.88;3.78;;;9.40;99.90;;;;;;5082135;28;20398;-76
2023/12/24 04:20:27;;;;;;;7.22;4.30;;;9.50;99.90;;;;;;5072080;28;20052;-77
2023/12/24 04:22:53;;;;;;;9.70;4.93;;;9.50;99.90;;;;;;5062703;28;20079;-76
2023/12/24 04:25:22;;;;;;;8.30;4.78;;;9.50;99.90;;;;;;5080572;28;20090;-77
2023/12/24 04:27:48;;;;;;;8.40;4.00;;;9.50;99.90;;;;;;5071212;28;20042;-76
2023/12/24 04:30:13;;;;;;;8.15;4.13;;;9.50;99.90;;;;;;5079869;28;20044;-77
2023/12/24 04:32:39;;;;;;;7.50;4.47;;;9.50;99.90;;;;;;5073144;28;20036;-76
2023/12/24 04:35:06;;;;;;;7.25;4.20;;;9.50;99.90;;;;;;5062573;28;20524;-76
2023/12/24 04:37:32;;;;;;;6.32;3.75;;;9.50;99.90;;;;;;5074948;28;20544;-76
2023/12/24 04:39:58;;;;;;;10.52;4.50;;;9.50;99.90;;;;;;5063192;28;20040;-77
2023/12/24 04:42:24;;;;;;;5.45;3.92;;;9.50;99.90;;;;;;5060425;28;20076;-77
2023/12/24 04:44:53;;;;;;;6.68;4.70;;;9.50;99.90;;;;;;5077316;28;20054;-76
2023/12/24 04:47:18;;;;;;;6.90;4.65;;;9.50;99.90;;;;;;5084783;28;20040;-76
2023/12/24 04:49:45;;;;;;;6.35;4.43;;;9.50;99.90;;;;;;5061633;28;20047;-77
2023/12/24 04:52:10;;;;;;;7.30;4.35;;;9.50;99.90;;;;;;5063460;28;20105;-77
2023/12/24 04:54:37;;;;;;;8.20;4.80;;;9.50;99.90;;;;;;5083042;28;20043;-77
2023/12/24 04:57:03;;;;;;;9.32;5.30;;;9.50;99.90;;;;;;5069427;28;20058;-77
2023/12/24 04:59:28;;;;;;;8.77;5.60;;;9.50;99.90;;;;;;5066967;28;20032;-76
2023/12/24 05:01:54;;;;;;;8.93;5.72;;;9.50;99.90;;;;;;5069857;28;20054;-76
2023/12/24 05:04:20;;;;;;;8.73;5.97;;;9.50;99.90;;;;;;5077260;28;20130;-77
2023/12/24 05:06:46;;;;;;;8.32;6.47;;;9.60;99.90;;;;;;5060209;28;20573;-78
2023/12/24 05:09:11;;;;;;;8.20;6.00;;;9.60;99.90;;;;;;5069473;28;20130;-77
2023/12/24 05:11:40;;;;;;;11.00;7.07;;;9.60;99.90;;;;;;5084365;28;20039;-77
2023/12/24 05:14:06;;;;;;;11.07;6.60;;;9.60;99.90;;;;;;5084417;28;20054;-77
2023/12/24 05:16:32;;;;;;;11.30;7.20;;;9.60;99.90;;;;;;5082793;28;20405;-77
2023/12/24 05:18:58;;;;;;;10.20;7.38;;;9.60;99.90;;;;;;5069272;28;20040;-77
2023/12/24 05:21:25;;;;;;;9.35;7.30;;;9.60;99.90;;;;;;5071465;28;20079;-77
2023/12/24 05:23:50;;;;;;;10.93;7.32;;;9.60;99.90;;;;;;5073215;28;20032;-77
2023/12/24 05:26:16;;;;;;;9.32;6.43;;;9.70;99.90;;;;;;5078297;28;20397;-77
2023/12/24 05:28:42;;;;;;;12.52;7.20;;;9.60;99.90;;;;;;5061919;28;20498;-77
2023/12/24 05:31:07;;;;;;;8.13;6.63;;;9.70;99.90;;;;;;5059297;28;20134;-77
2023/12/24 05:33:33;;;;;;;10.48;6.63;;;9.70;99.90;;;;;;5082223;28;20096;-77
2023/12/24 05:35:59;;;;;;;11.15;6.80;;;9.70;99.90;;;;;;5071688;28;20064;-78
2023/12/24 05:38:25;;;;;;;9.32;7.03;;;9.70;99.90;;;;;;5061163;28;20044;-78
2023/12/24 05:40:51;;;;;;;8.85;6.68;;;9.70;99.90;;;;;;5081962;28;20044;-78
2023/12/24 05:43:17;;;;;;;12.45;7.80;;;9.70;99.90;;;;;;5070005;28;20047;-79
2023/12/24 05:45:43;;;;;;;11.27;7.35;;;9.80;99.90;;;;;;5066280;28;20036;-79
2023/12/24 05:48:09;;;;;;;13.20;8.35;;;9.80;99.90;;;;;;5070632;28;20410;-76
2023/12/24 05:50:34;;;;;;;10.82;7.90;;;9.80;99.90;;;;;;5053098;28;20050;-78
2023/12/24 05:53:00;;;;;;;11.65;8.23;;;9.80;99.90;;;;;;5078384;28;20078;-77
2023/12/24 05:55:27;;;;;;;13.18;8.48;;;9.80;99.90;;;;;;5075867;28;20502;-78
2023/12/24 05:57:52;;;;;;;11.70;8.15;;;9.90;99.90;;;;;;5082915;28;20059;-78
2023/12/24 06:00:18;;;;;;;13.82;8.93;;;9.90;99.90;;;;;;5069584;28;20753;-78
2023/12/24 06:02:44;;;;;;;12.88;8.23;;;9.90;99.90;;;;;;5075596;28;20071;-77
2023/12/24 06:05:10;;;;;;;14.48;9.15;;;10.00;99.90;;;;;;5058063;28;20044;-77
2023/12/24 06:07:36;;;;;;;14.38;9.07;;;10.00;99.90;;;;;;5069490;28;20048;-78
2023/12/24 06:10:01;;;;;;;15.70;9.25;;;10.00;99.90;;;;;;5069664;28;20060;-77
2023/12/24 06:12:27;;;;;;;12.95;9.63;;;10.00;99.90;;;;;;5066700;28;20051;-77
2023/12/24 06:14:53;;;;;;;14.50;8.98;;;10.00;99.90;;;;;;5080099;28;20055;-77
2023/12/24 06:17:19;;;;;;;15.82;10.73;;;10.00;99.90;;;;;;5085502;28;20046;-77
2023/12/24 06:19:44;;;;;;;19.20;10.50;;;10.00;99.90;;;;;;5070314;28;20066;-78
2023/12/24 06:22:10;;;;;;;20.50;10.93;;;10.10;99.90;;;;;;5065213;28;20081;-77
2023/12/24 06:24:36;;;;;;;16.48;9.90;;;10.10;99.90;;;;;;5075283;28;20100;-77
2023/12/24 06:27:01;;;;;;;18.58;10.05;;;10.10;99.90;;;;;;5078919;28;20063;-78
2023/12/24 06:29:27;;;;;;;21.48;11.32;;;10.10;99.90;;;;;;5068492;28;20101;-77
2023/12/24 06:31:56;;;;;;;20.60;11.23;;;10.10;99.90;;;;;;5060051;28;20051;-78
2023/12/24 06:34:22;;;;;;;20.90;11.18;;;10.20;99.90;;;;;;5073119;28;20609;-78
2023/12/24 06:36:47;;;;;;;22.17;11.52;;;10.20;99.90;;;;;;5069756;28;20040;-77
2023/12/24 06:39:13;;;;;;;23.95;12.20;;;10.20;99.90;;;;;;5053831;28;20406;-77
2023/12/24 06:41:39;;;;;;;25.02;11.57;;;10.20;99.90;;;;;;5088490;28;20040;-79
2023/12/24 06:44:05;;;;;;;25.60;12.52;;;10.20;99.90;;;;;;5088625;28;20043;-77
2023/12/24 06:46:31;;;;;;;25.20;13.25;;;10.20;99.90;;;;;;5071802;28;20044;-77
2023/12/24 06:48:56;;;;;;;25.38;12.40;;;10.30;99.90;;;;;;5065678;28;20043;-78
2023/12/24 06:51:22;;;;;;;18.27;11.98;;;10.30;99.90;;;;;;5072402;28;20040;-78
2023/12/24 06:53:48;;;;;;;25.27;12.27;;;10.30;99.90;;;;;;5085600;28;20398;-78
2023/12/24 06:56:13;;;;;;;25.48;11.40;;;10.30;99.90;;;;;;5078457;28;20101;-77
2023/12/24 06:58:42;;;;;;;23.80;12.07;;;10.30;99.90;;;;;;5070823;28;20073;-78
2023/12/24 07:01:08;;;;;;;21.85;11.45;;;10.30;99.90;;;;;;5062930;28;20039;-77
2023/12/24 07:03:34;;;;;;;22.60;11.20;;;10.30;99.90;;;;;;5077666;28;20085;-77
2023/12/24 07:06:00;;;;;;;24.95;12.38;;;10.40;99.90;;;;;;5059775;28;20115;-77
2023/12/24 07:08:26;;;;;;;32.70;13.60;;;10.40;99.90;;;;;;5075648;28;20059;-78
2023/12/24 07:10:51;;;;;;;29.05;13.73;;;10.40;99.90;;;;;;5070455;27;20036;-78
2023/12/24 07:13:17;;;;;;;29.27;14.13;;;10.40;99.90;;;;;;5081018;27;20408;-77
2023/12/24 07:15:46;;;;;;;25.70;14.23;;;10.40;99.90;;;;;;5076717;27;20035;-77
2023/12/24 07:18:12;;;;;;;30.70;13.80;;;10.40;99.90;;;;;;5078219;28;20051;-78
2023/12/24 07:20:37;;;;;;;23.50;12.05;;;10.40;99.90;;;;;;5083997;27;20052;-77
2023/12/24 07:23:03;;;;;;;26.20;12.73;;;10.40;99.90;;;;;;5093798;28;20043;-78
2023/12/24 07:25:29;;;;;;;22.83;11.45;;;10.40;99.90;;;;;;5070664;28;20056;-78
2023/12/24 07:27:56;;;;;;;27.42;11.77;;;10.50;99.90;;;;;;5067141;28;20398;-78
2023/12/24 07:30:21;;;;;;;26.20;11.30;;;10.40;99.90;;;;;;5082387;27;20389;-77
2023/12/24 07:32:47;;;;;;;24.60;12.15;;;10.50;99.90;;;;;;5078937;28;20042;-77
2023/12/24 07:35:13;;;;;;;29.17;12.45;;;10.50;99.90;;;;;;5075848;27;20276;-78
2023/12/24 07:37:41;;;;;;;27.65;11.88;;;10.50;99.90;;;;;;5081894;28;20089;-78
2023/12/24 07:40:08;;;;;;;28.38;13.05;;;10.50;99.90;;;;;;5092931;27;20039;-77
2023/12/24 07:42:35;;;;;;;20.98;11.40;;;10.50;99.90;;;;;;5068884;28;20116;-78
2023/12/24 07:45:03;;;;;;;27.38;12.95;;;10.50;99.90;;;;;;5063777;28;20051;-78
2023/12/24 07:47:29;;;;;;;31.08;14.07;;;10.50;99.90;;;;;;5074955;27;20135;-77
2023/12/24 07:49:55;;;;;;;28.73;12.60;;;10.60;99.90;;;;;;5082110;27;20036;-77
2023/12/24 07:52:21;;;;;;;24.17;11.25;;;10.60;99.90;;;;;;5072887;28;20043;-77
2023/12/24 07:54:47;;;;;;;23.80;12.00;;;10.60;99.90;;;;;;5086535;28;20031;-77
2023/12/24 07:57:12;;;;;;;24.27;13.02;;;10.60;99.90;;;;;;5090703;28;20498;-78
2023/12/24 07:59:40;;;;;;;25.13;14.05;;;10.60;99.90;;;;;;5091311;27;20059;-78
2023/12/24 08:02:06;;;;;;;28.17;14.13;;;10.60;99.90;;;;;;5094623;27;20432;-80
2023/12/24 08:04:32;;;;;;;35.05;14.80;;;10.60;99.90;;;;;;5087170;27;20046;-79
2023/12/24 08:07:01;;;;;;;24.95;13.82;;;10.70;99.90;;;;;;5067306;27;21522;-79
2023/12/24 08:09:29;;;;;;;31.30;15.07;;;10.60;99.90;;;;;;5081931;27;20398;-79
2023/12/24 08:11:55;;;;;;;27.88;14.15;;;10.60;99.90;;;;;;5101435;27;20093;-78
2023/12/24 08:14:21;;;;;;;31.05;15.43;;;10.70;99.90;;;;;;5070708;28;20072;-78
2023/12/24 08:16:47;;;;;;;36.42;15.65;;;10.70;99.90;;;;;;5074971;27;20428;-79
2023/12/24 08:19:12;;;;;;;32.47;15.73;;;10.60;99.90;;;;;;5086232;27;20055;-79
2023/12/24 08:21:38;;;;;;;32.58;14.93;;;10.60;99.90;;;;;;5096274;27;20126;-78
2023/12/24 08:24:04;;;;;;;30.38;14.68;;;10.60;99.90;;;;;;5070890;27;20052;-78
2023/12/24 08:26:30;;;;;;;39.38;15.05;;;10.70;99.90;;;;;;5092687;27;20114;-78
2023/12/24 08:28:56;;;;;;;36.17;14.50;;;10.70;99.90;;;;;;5073664;28;20269;-79
2023/12/24 08:31:22;;;;;;;28.00;12.40;;;10.70;99.90;;;;;;5070570;28;20090;-79
2023/12/24 08:33:48;;;;;;;32.63;12.80;;;10.60;99.90;;;;;;5070669;28;22825;-78
2023/12/24 08:36:14;;;;;;;32.00;12.88;;;10.60;99.90;;;;;;5075129;27;20051;-78
2023/12/24 08:38:40;;;;;;;30.98;12.48;;;10.60;99.90;;;;;;5071896;28;20082;-78
2023/12/24 08:41:05;;;;;;;34.30;12.75;;;10.70;99.90;;;;;;5092452;27;20090;-79
2023/12/24 08:43:32;;;;;;;36.55;12.85;;;10.70;99.90;;;;;;5088141;28;20110;-78
2023/12/24 08:46:03;;;;;;;36.50;13.27;;;10.70;99.90;;;;;;5076643;27;20047;-78
2023/12/24 08:48:29;;;;;;;33.15;12.75;;;10.60;99.90;;;;;;5097757;27;20346;-78
2023/12/24 08:50:58;;;;;;;32.90;12.55;;;10.60;99.90;;;;;;5079151;28;20043;-78
2023/12/24 08:53:24;;;;;;;38.60;11.75;;;10.60;99.90;;;;;;5086294;28;20392;-79
2023/12/24 08:55:49;;;;;;;32.90;11.73;;;10.60;99.90;;;;;;5077856;27;20036;-78
2023/12/24 08:58:16;;;;;;;30.52;11.35;;;10.70;99.90;;;;;;5081811;27;20576;-78
2023/12/24 09:00:42;;;;;;;34.67;11.48;;;10.60;99.90;;;;;;5067246;28;21027;-78
2023/12/24 09:03:08;;;;;;;32.70;10.90;;;10.60;99.90;;;;;;5084246;27;20043;-77
2023/12/24 09:05:34;;;;;;;34.70;11.77;;;10.70;99.90;;;;;;5082857;28;20062;-77
2023/12/24 09:08:00;;;;;;;29.92;11.07;;;10.70;99.90;;;;;;5098806;27;20331;-78
2023/12/24 09:10:29;;;;;;;34.70;11.95;;;10.70;99.90;;;;;;5094957;28;20051;-77
2023/12/24 09:12:58;;;;;;;29.42;12.30;;;10.70;99.90;;;;;;5085468;27;20039;-77
2023/12/24 09:15:23;;;;;;;27.58;11.80;;;10.70;99.90;;;;;;5075608;28;20047;-77
2023/12/24 09:17:49;;;;;;;33.08;11.23;;;10.70;99.90;;;;;;5071123;28;20036;-77
2023/12/24 09:20:15;;;;;;;30.20;10.95;;;10.80;99.90;;;;;;5088705;28;20051;-77
2023/12/24 09:22:40;;;;;;;28.98;10.60;;;10.70;99.90;;;;;;5071357;28;20043;-77
2023/12/24 09:25:07;;;;;;;27.38;11.63;;;10.80;99.90;;;;;;5086016;27;20071;-77
2023/12/24 09:27:32;;;;;;;35.75;11.18;;;10.80;99.90;;;;;;5064261;28;20140;-77
2023/12/24 09:30:04;;;;;;;25.90;10.18;;;10.80;99.90;;;;;;5069246;28;20071;-77
2023/12/24 09:32:30;;;;;;;22.92;10.25;;;10.80;99.90;;;;;;5082603;28;20054;-77
2023/12/24 09:34:56;;;;;;;31.65;12.45;;;10.80;99.90;;;;;;5070293;28;20040;-77
2023/12/24 09:37:22;;;;;;;23.13;10.93;;;10.80;99.90;;;;;;5085691;28;20047;-77
2023/12/24 09:39:48;;;;;;;25.77;10.20;;;10.80;99.90;;;;;;5071190;27;20039;-78
2023/12/24 09:42:13;;;;;;;23.80;10.50;;;10.80;99.90;;;;;;5085637;28;20043;-77
2023/12/24 09:44:40;;;;;;;24.25;10.20;;;10.90;99.90;;;;;;5085159;27;20043;-77
2023/12/24 09:47:05;;;;;;;28.48;9.40;;;10.90;99.90;;;;;;5074928;28;20058;-77
2023/12/24 09:49:31;;;;;;;25.33;9.55;;;10.90;99.90;;;;;;5071571;27;20121;-78
2023/12/24 09:51:59;;;;;;;28.70;9.80;;;10.90;99.90;;;;;;5076753;27;20477;-77
2023/12/24 09:54:27;;;;;;;23.25;8.93;;;10.90;99.90;;;;;;5071897;28;20043;-78
2023/12/24 09:56:54;;;;;;;20.58;8.23;;;11.00;99.90;;;;;;5094919;28;20050;-77
2023/12/24 09:59:20;;;;;;;25.88;9.02;;;11.00;99.90;;;;;;5081070;28;20078;-77
2023/12/24 10:01:46;;;;;;;20.63;7.90;;;11.10;99.90;;;;;;5089269;28;20559;-77
2023/12/24 10:04:13;;;;;;;21.23;8.20;;;11.10;99.90;;;;;;5086706;28;20118;-76
2023/12/24 10:06:59;;;;;;;24.02;8.52;;;11.10;99.90;;;;;;5093589;28;20122;-79
2023/12/24 10:09:47;;;;;;;21.30;8.40;;;11.10;99.90;;;;;;5084637;28;20513;-80
2023/12/24 10:12:13;;;;;;;25.60;8.95;;;11.10;99.90;;;;;;5076021;28;20058;-78
2023/12/24 10:14:40;;;;;;;22.15;7.95;;;11.20;99.90;;;;;;5072223;28;20031;-78
2023/12/24 10:17:06;;;;;;;23.33;7.90;;;11.20;99.90;;;;;;5090461;27;20503;-79
2023/12/24 10:19:33;;;;;;;23.15;7.78;;;11.20;99.90;;;;;;5090602;28;20044;-79
2023/12/24 10:22:08;;;;;;;18.60;7.40;;;11.20;99.90;;;;;;5081549;28;20049;-79
2023/12/24 10:24:38;;;;;;;25.48;7.72;;;11.20;99.90;;;;;;5079016;28;20225;-80
2023/12/24 10:27:08;;;;;;;19.02;6.85;;;11.30;99.90;;;;;;5087128;28;20068;-79
2023/12/24 10:29:35;;;;;;;22.20;7.15;;;11.20;99.90;;;;;;5086104;28;20050;-80
2023/12/24 10:32:01;;;;;;;18.55;6.60;;;11.30;99.90;;;;;;5080452;28;20047;-78
2023/12/24 10:34:28;;;;;;;20.00;6.25;;;11.30;99.90;;;;;;5085363;28;20047;-79
2023/12/24 10:36:55;;;;;;;15.35;6.38;;;11.30;99.90;;;;;;5091996;28;20039;-77
2023/12/24 10:39:26;;;;;;;16.80;5.38;;;11.30;99.90;;;;;;5064929;28;20105;-76
2023/12/24 10:41:54;;;;;;;20.63;5.95;;;11.40;99.90;;;;;;5073667;28;20052;-77
2023/12/24 10:44:21;;;;;;;21.60;5.70;;;11.40;99.90;;;;;;5075603;28;20047;-78
2023/12/24 10:46:47;;;;;;;16.58;4.53;;;11.40;99.90;;;;;;5085969;28;20758;-76
2023/12/24 10:49:13;;;;;;;17.63;4.93;;;11.50;99.90;;;;;;5066978;28;20046;-77
2023/12/24 10:51:39;;;;;;;18.33;5.70;;;11.50;99.90;;;;;;5063828;28;20040;-77
2023/12/24 10:54:09;;;;;;;15.75;5.10;;;11.50;99.90;;;;;;5089488;28;20043;-76
2023/12/24 10:56:50;;;;;;;16.40;5.13;;;11.50;99.90;;;;;;5075514;28;20051;-77
2023/12/24 10:59:42;;;;;;;17.45;5.30;;;11.60;99.90;;;;;;5089927;28;20043;-77
2023/12/24 11:02:12;;;;;;;15.73;4.82;;;11.60;99.90;;;;;;5075073;28;20067;-77
2023/12/24 11:04:44;;;;;;;15.75;4.15;;;11.60;99.90;;;;;;5080220;28;20043;-77
2023/12/24 11:07:28;;;;;;;20.70;5.55;;;11.60;99.90;;;;;;5075716;28;20485;-77
2023/12/24 11:09:54;;;;;;;16.42;4.90;;;11.60;99.90;;;;;;5070013;28;20461;-77
2023/12/24 11:12:40;;;;;;;16.92;4.45;;;11.80;99.90;;;;;;5079941;28;20067;-77
2023/12/24 11:15:09;;;;;;;16.52;4.88;;;11.70;99.90;;;;;;5070097;28;20053;-75
2023/12/24 11:17:37;;;;;;;19.70;5.07;;;11.70;99.90;;;;;;5087079;28;20057;-76
2023/12/24 11:20:24;;;;;;;17.45;4.50;;;11.70;99.90;;;;;;5071750;28;20101;-76
2023/12/24 11:23:09;;;;;;;20.77;4.45;;;11.70;99.90;;;;;;5079010;28;20512;-75
2023/12/24 11:25:55;;;;;;;13.82;4.78;;;11.70;99.90;;;;;;5080219;28;20027;-74
2023/12/24 11:28:27;;;;;;;14.45;4.20;;;11.70;99.90;;;;;;5088459;28;20077;-75
2023/12/24 11:30:52;;;;;;;17.90;5.38;;;11.60;99.90;;;;;;5062123;27;20043;-76
2023/12/24 11:33:36;;;;;;;18.02;5.25;;;11.70;99.90;;;;;;5089225;27;20051;-75
2023/12/24 11:36:08;;;;;;;15.15;4.53;;;11.70;99.90;;;;;;5090848;27;20083;-75
2023/12/24 11:38:34;;;;;;;16.02;5.00;;;11.70;99.90;;;;;;5081401;27;20051;-77
2023/12/24 11:41:13;;;;;;;17.00;4.95;;;11.70;99.90;;;;;;5100856;27;20514;-77
2023/12/24 11:43:41;;;;;;;20.75;5.00;;;11.80;99.90;;;;;;5097475;28;20047;-77
2023/12/24 11:46:10;;;;;;;18.63;4.93;;;11.80;99.90;;;;;;5087160;28;20048;-76
2023/12/24 11:48:36;;;;;;;14.77;4.45;;;11.80;99.90;;;;;;5086317;28;20465;-77
2023/12/24 11:51:09;;;;;;;18.92;4.97;;;11.80;99.90;;;;;;5073224;27;20048;-76
2023/12/24 11:53:40;;;;;;;15.10;4.10;;;11.80;99.90;;;;;;5069321;28;20036;-76
2023/12/24 11:56:17;;;;;;;15.60;4.88;;;11.80;99.90;;;;;;5075410;27;20089;-76
2023/12/24 11:59:04;;;;;;;16.65;4.97;;;11.80;99.90;;;;;;5079093;27;20047;-76
2023/12/24 12:01:36;;;;;;;18.02;4.57;;;11.90;99.90;;;;;;5087369;28;20097;-77
2023/12/24 12:04:04;;;;;;;17.83;4.80;;;11.80;99.90;;;;;;5079288;28;20040;-77
2023/12/24 12:06:34;;;;;;;14.95;4.22;;;11.80;99.90;;;;;;5090969;28;20117;-76
2023/12/24 12:09:04;;;;;;;13.95;4.53;;;11.80;99.90;;;;;;5073046;28;20395;-76
2023/12/24 12:11:31;;;;;;;19.60;5.68;;;11.80;99.90;;;;;;5091820;28;20084;-76
2023/12/24 12:13:59;;;;;;;16.52;5.47;;;11.80;99.90;;;;;;5087007;28;20040;-76
2023/12/24 12:16:24;;;;;;;13.57;5.40;;;11.80;99.90;;;;;;5091843;27;20126;-76
2023/12/24 12:18:50;;;;;;;18.35;5.20;;;11.80;99.90;;;;;;5085590;28;20122;-76
2023/12/24 12:21:16;;;;;;;16.42;5.65;;;11.80;99.90;;;;;;5093862;27;20039;-76
2023/12/24 12:23:42;;;;;;;19.33;5.35;;;11.80;99.90;;;;;;5082722;27;20048;-77
2023/12/24 12:26:08;;;;;;;19.30;5.80;;;11.80;99.90;;;;;;5080932;28;20043;-76
2023/12/24 12:28:35;;;;;;;19.40;5.78;;;11.80;99.90;;;;;;5065008;28;20576;-76
2023/12/24 12:31:01;;;;;;;18.58;6.03;;;11.80;99.90;;;;;;5069028;27;20044;-75
2023/12/24 12:33:27;;;;;;;19.23;5.47;;;11.70;99.90;;;;;;5068267;28;20543;-75
2023/12/24 12:35:53;;;;;;;17.23;5.65;;;11.70;99.90;;;;;;5074925;28;20062;-75
2023/12/24 12:38:19;;;;;;;19.85;5.60;;;11.70;99.90;;;;;;5070428;27;20047;-76
2023/12/24 12:40:46;;;;;;;16.38;5.07;;;11.70;99.90;;;;;;5091996;27;20487;-75